sensor_id;sensor_type;location;lat;lon;timestamp;temperature;humidity
12477;DHT22;6303;51.504;6.300;2023-07-29T00:01:42;26.60;81.70
12477;DHT22;6303;51.504;6.300;2023-07-29T00:04:09;26.60;81.70
12477;DHT22;6303;51.504;6.300;2023-07-29T00:06:36;26.50;81.60
12477;DHT22;6303;51.504;6.300;2023-07-29T00:09:03;26.50;81.60
12477;DHT22;6303;51.504;6.300;2023-07-29T00:11:31;26.50;81.60
12477;DHT22;6303;51.504;6.300;2023-07-29T00:14:00;26.50;81.70
12477;DHT22;6303;51.504;6.300;2023-07-29T00:16:28;26.50;81.70
12477;DHT22;6303;51.504;6.300;2023-07-29T00:18:55;26.50;81.60
12477;DHT22;6303;51.504;6.300;2023-07-29T00:21:22;26.50;81.60
12477;DHT22;6303;51.504;6.300;2023-07-29T00:23:49;26.50;81.70
12477;DHT22;6303;51.504;6.300;2023-07-29T00:26:16;26.50;81.70
12477;DHT22;6303;51.504;6.300;2023-07-29T00:28:43;26.50;81.50
12477;DHT22;6303;51.504;6.300;2023-07-29T00:31:11;26.50;81.60
12477;DHT22;6303;51.504;6.300;2023-07-29T00:33:38;26.50;81.80
12477;DHT22;6303;51.504;6.300;2023-07-29T00:36:05;26.50;81.70
12477;DHT22;6303;51.504;6.300;2023-07-29T00:38:32;26.50;81.60
12477;DHT22;6303;51.504;6.300;2023-07-29T00:41:00;26.40;81.70
12477;DHT22;6303;51.504;6.300;2023-07-29T00:43:29;26.50;81.70
12477;DHT22;6303;51.504;6.300;2023-07-29T00:45:56;26.50;81.90
12477;DHT22;6303;51.504;6.300;2023-07-29T00:48:26;26.40;81.70
12477;DHT22;6303;51.504;6.300;2023-07-29T00:50:54;26.40;81.90
12477;DHT22;6303;51.504;6.300;2023-07-29T00:53:21;26.40;81.80
12477;DHT22;6303;51.504;6.300;2023-07-29T00:55:49;26.40;81.90
12477;DHT22;6303;51.504;6.300;2023-07-29T00:58:16;26.40;82.10
12477;DHT22;6303;51.504;6.300;2023-07-29T01:00:43;26.40;82.20
12477;DHT22;6303;51.504;6.300;2023-07-29T01:03:11;26.40;82.40
12477;DHT22;6303;51.504;6.300;2023-07-29T01:05:49;26.40;82.50
12477;DHT22;6303;51.504;6.300;2023-07-29T01:08:21;26.40;82.50
12477;DHT22;6303;51.504;6.300;2023-07-29T01:10:58;26.40;82.40
12477;DHT22;6303;51.504;6.300;2023-07-29T01:13:33;26.40;82.40
12477;DHT22;6303;51.504;6.300;2023-07-29T01:16:13;26.40;82.70
12477;DHT22;6303;51.504;6.300;2023-07-29T01:18:43;26.40;82.70
12477;DHT22;6303;51.504;6.300;2023-07-29T01:21:14;26.40;82.50
12477;DHT22;6303;51.504;6.300;2023-07-29T01:23:43;26.40;82.80
12477;DHT22;6303;51.504;6.300;2023-07-29T01:26:10;26.40;82.80
12477;DHT22;6303;51.504;6.300;2023-07-29T01:28:40;26.40;82.70
12477;DHT22;6303;51.504;6.300;2023-07-29T01:31:12;26.40;83.00
12477;DHT22;6303;51.504;6.300;2023-07-29T01:33:44;26.40;83.00
12477;DHT22;6303;51.504;6.300;2023-07-29T01:36:18;26.40;83.00
12477;DHT22;6303;51.504;6.300;2023-07-29T01:38:49;26.40;83.00
12477;DHT22;6303;51.504;6.300;2023-07-29T01:41:18;26.40;83.00
12477;DHT22;6303;51.504;6.300;2023-07-29T01:43:46;26.40;83.10
12477;DHT22;6303;51.504;6.300;2023-07-29T01:46:14;26.40;83.30
12477;DHT22;6303;51.504;6.300;2023-07-29T01:48:41;26.40;83.40
12477;DHT22;6303;51.504;6.300;2023-07-29T01:51:11;26.40;83.40
12477;DHT22;6303;51.504;6.300;2023-07-29T01:53:38;26.40;83.70
12477;DHT22;6303;51.504;6.300;2023-07-29T01:56:07;26.40;83.90
12477;DHT22;6303;51.504;6.300;2023-07-29T01:58:36;26.40;83.90
12477;DHT22;6303;51.504;6.300;2023-07-29T02:01:04;26.40;83.90
12477;DHT22;6303;51.504;6.300;2023-07-29T02:03:31;26.40;83.90
12477;DHT22;6303;51.504;6.300;2023-07-29T02:05:58;26.40;84.00
12477;DHT22;6303;51.504;6.300;2023-07-29T02:08:25;26.40;84.00
12477;DHT22;6303;51.504;6.300;2023-07-29T02:10:52;26.40;84.20
12477;DHT22;6303;51.504;6.300;2023-07-29T02:13:20;26.40;84.30
12477;DHT22;6303;51.504;6.300;2023-07-29T02:15:47;26.40;84.40
12477;DHT22;6303;51.504;6.300;2023-07-29T02:18:14;26.40;84.50
12477;DHT22;6303;51.504;6.300;2023-07-29T02:20:42;26.40;84.60
12477;DHT22;6303;51.504;6.300;2023-07-29T02:23:15;26.40;84.60
12477;DHT22;6303;51.504;6.300;2023-07-29T02:25:42;26.40;84.70
12477;DHT22;6303;51.504;6.300;2023-07-29T02:28:09;26.40;84.70
12477;DHT22;6303;51.504;6.300;2023-07-29T02:30:41;26.40;84.80
12477;DHT22;6303;51.504;6.300;2023-07-29T02:33:10;26.40;84.80
12477;DHT22;6303;51.504;6.300;2023-07-29T02:35:37;26.40;84.90
12477;DHT22;6303;51.504;6.300;2023-07-29T02:38:04;26.40;85.00
12477;DHT22;6303;51.504;6.300;2023-07-29T02:40:31;26.40;84.90
12477;DHT22;6303;51.504;6.300;2023-07-29T02:42:58;26.40;85.00
12477;DHT22;6303;51.504;6.300;2023-07-29T02:45:26;26.40;85.20
12477;DHT22;6303;51.504;6.300;2023-07-29T02:47:55;26.40;85.10
12477;DHT22;6303;51.504;6.300;2023-07-29T02:50:22;26.40;85.20
12477;DHT22;6303;51.504;6.300;2023-07-29T02:52:49;26.40;85.90
12477;DHT22;6303;51.504;6.300;2023-07-29T02:55:18;26.40;85.20
12477;DHT22;6303;51.504;6.300;2023-07-29T02:57:45;26.40;85.30
12477;DHT22;6303;51.504;6.300;2023-07-29T03:00:13;26.40;85.30
12477;DHT22;6303;51.504;6.300;2023-07-29T03:02:40;26.40;85.30
12477;DHT22;6303;51.504;6.300;2023-07-29T03:05:09;26.40;85.20
12477;DHT22;6303;51.504;6.300;2023-07-29T03:07:36;26.40;85.00
12477;DHT22;6303;51.504;6.300;2023-07-29T03:10:05;26.40;84.80
12477;DHT22;6303;51.504;6.300;2023-07-29T03:12:32;26.40;84.60
12477;DHT22;6303;51.504;6.300;2023-07-29T03:14:59;26.40;84.20
12477;DHT22;6303;51.504;6.300;2023-07-29T03:17:27;26.40;83.90
12477;DHT22;6303;51.504;6.300;2023-07-29T03:19:54;26.40;83.60
12477;DHT22;6303;51.504;6.300;2023-07-29T03:22:22;26.40;83.10
12477;DHT22;6303;51.504;6.300;2023-07-29T03:24:49;26.40;82.60
12477;DHT22;6303;51.504;6.300;2023-07-29T03:27:17;26.40;82.50
12477;DHT22;6303;51.504;6.300;2023-07-29T03:29:44;26.40;82.20
12477;DHT22;6303;51.504;6.300;2023-07-29T03:32:11;26.40;82.00
12477;DHT22;6303;51.504;6.300;2023-07-29T03:34:38;26.30;81.70
12477;DHT22;6303;51.504;6.300;2023-07-29T03:37:06;26.30;81.50
12477;DHT22;6303;51.504;6.300;2023-07-29T03:39:34;26.30;81.40
12477;DHT22;6303;51.504;6.300;2023-07-29T03:42:01;26.30;81.00
12477;DHT22;6303;51.504;6.300;2023-07-29T03:44:29;26.30;80.70
12477;DHT22;6303;51.504;6.300;2023-07-29T03:46:56;26.30;80.40
12477;DHT22;6303;51.504;6.300;2023-07-29T03:49:23;26.30;80.00
12477;DHT22;6303;51.504;6.300;2023-07-29T03:51:51;26.30;79.70
12477;DHT22;6303;51.504;6.300;2023-07-29T03:54:18;26.30;79.50
12477;DHT22;6303;51.504;6.300;2023-07-29T03:56:47;26.30;79.20
12477;DHT22;6303;51.504;6.300;2023-07-29T03:59:14;26.30;78.90
12477;DHT22;6303;51.504;6.300;2023-07-29T04:01:41;26.30;78.60
12477;DHT22;6303;51.504;6.300;2023-07-29T04:04:08;26.30;78.50
12477;DHT22;6303;51.504;6.300;2023-07-29T04:06:35;26.30;78.30
12477;DHT22;6303;51.504;6.300;2023-07-29T04:09:02;26.30;78.40
12477;DHT22;6303;51.504;6.300;2023-07-29T04:11:29;26.30;78.40
12477;DHT22;6303;51.504;6.300;2023-07-29T04:13:58;26.30;78.20
12477;DHT22;6303;51.504;6.300;2023-07-29T04:16:25;26.30;77.90
12477;DHT22;6303;51.504;6.300;2023-07-29T04:18:52;26.30;77.80
12477;DHT22;6303;51.504;6.300;2023-07-29T04:21:20;26.30;77.70
12477;DHT22;6303;51.504;6.300;2023-07-29T04:23:47;26.30;77.50
12477;DHT22;6303;51.504;6.300;2023-07-29T04:26:14;26.70;77.70
12477;DHT22;6303;51.504;6.300;2023-07-29T04:28:42;26.30;77.30
12477;DHT22;6303;51.504;6.300;2023-07-29T04:31:10;26.20;77.10
12477;DHT22;6303;51.504;6.300;2023-07-29T04:33:37;26.20;77.00
12477;DHT22;6303;51.504;6.300;2023-07-29T04:36:05;26.20;77.00
12477;DHT22;6303;51.504;6.300;2023-07-29T04:38:33;26.20;77.00
12477;DHT22;6303;51.504;6.300;2023-07-29T04:41:00;26.20;77.00
12477;DHT22;6303;51.504;6.300;2023-07-29T04:43:27;26.20;77.10
12477;DHT22;6303;51.504;6.300;2023-07-29T04:45:55;26.20;77.20
12477;DHT22;6303;51.504;6.300;2023-07-29T04:48:23;26.20;77.30
12477;DHT22;6303;51.504;6.300;2023-07-29T04:50:50;26.20;77.30
12477;DHT22;6303;51.504;6.300;2023-07-29T04:53:17;26.20;77.30
12477;DHT22;6303;51.504;6.300;2023-07-29T04:55:45;27.40;78.30
12477;DHT22;6303;51.504;6.300;2023-07-29T04:58:12;26.20;77.30
12477;DHT22;6303;51.504;6.300;2023-07-29T05:00:39;26.20;77.30
12477;DHT22;6303;51.504;6.300;2023-07-29T05:03:06;26.20;77.30
12477;DHT22;6303;51.504;6.300;2023-07-29T05:05:35;26.20;77.10
12477;DHT22;6303;51.504;6.300;2023-07-29T05:08:03;26.20;76.90
12477;DHT22;6303;51.504;6.300;2023-07-29T05:10:30;26.20;76.60
12477;DHT22;6303;51.504;6.300;2023-07-29T05:12:57;26.20;76.30
12477;DHT22;6303;51.504;6.300;2023-07-29T05:15:24;26.20;76.00
12477;DHT22;6303;51.504;6.300;2023-07-29T05:17:51;26.20;75.70
12477;DHT22;6303;51.504;6.300;2023-07-29T05:20:18;26.20;75.50
12477;DHT22;6303;51.504;6.300;2023-07-29T05:22:47;26.20;75.30
12477;DHT22;6303;51.504;6.300;2023-07-29T05:25:14;26.20;75.20
12477;DHT22;6303;51.504;6.300;2023-07-29T05:27:41;26.10;74.90
12477;DHT22;6303;51.504;6.300;2023-07-29T05:30:08;26.20;74.80
12477;DHT22;6303;51.504;6.300;2023-07-29T05:32:36;26.20;74.60
12477;DHT22;6303;51.504;6.300;2023-07-29T05:35:03;26.10;74.50
12477;DHT22;6303;51.504;6.300;2023-07-29T05:37:31;26.20;74.40
12477;DHT22;6303;51.504;6.300;2023-07-29T05:39:59;26.20;74.20
12477;DHT22;6303;51.504;6.300;2023-07-29T05:42:27;26.10;74.10
12477;DHT22;6303;51.504;6.300;2023-07-29T05:44:54;26.10;74.00
12477;DHT22;6303;51.504;6.300;2023-07-29T05:47:21;26.20;74.10
12477;DHT22;6303;51.504;6.300;2023-07-29T05:49:48;26.10;73.90
12477;DHT22;6303;51.504;6.300;2023-07-29T05:52:15;26.10;73.60
12477;DHT22;6303;51.504;6.300;2023-07-29T05:54:42;26.10;73.50
12477;DHT22;6303;51.504;6.300;2023-07-29T05:57:11;26.10;73.30
12477;DHT22;6303;51.504;6.300;2023-07-29T05:59:38;26.10;73.20
12477;DHT22;6303;51.504;6.300;2023-07-29T06:02:06;26.10;73.10
12477;DHT22;6303;51.504;6.300;2023-07-29T06:04:34;26.10;72.90
12477;DHT22;6303;51.504;6.300;2023-07-29T06:07:01;26.10;72.70
12477;DHT22;6303;51.504;6.300;2023-07-29T06:09:28;26.10;72.60
12477;DHT22;6303;51.504;6.300;2023-07-29T06:11:55;26.10;72.40
12477;DHT22;6303;51.504;6.300;2023-07-29T06:14:24;26.10;72.10
12477;DHT22;6303;51.504;6.300;2023-07-29T06:16:51;26.10;71.90
12477;DHT22;6303;51.504;6.300;2023-07-29T06:19:20;26.10;71.80
12477;DHT22;6303;51.504;6.300;2023-07-29T06:21:48;26.20;71.70
12477;DHT22;6303;51.504;6.300;2023-07-29T06:24:15;26.10;71.40
12477;DHT22;6303;51.504;6.300;2023-07-29T06:26:42;26.20;71.30
12477;DHT22;6303;51.504;6.300;2023-07-29T06:29:09;26.10;71.00
12477;DHT22;6303;51.504;6.300;2023-07-29T06:31:37;26.10;71.00
12477;DHT22;6303;51.504;6.300;2023-07-29T06:34:04;26.10;71.10
12477;DHT22;6303;51.504;6.300;2023-07-29T06:36:32;26.10;71.00
12477;DHT22;6303;51.504;6.300;2023-07-29T06:38:59;26.10;71.00
12477;DHT22;6303;51.504;6.300;2023-07-29T06:41:26;26.10;70.80
12477;DHT22;6303;51.504;6.300;2023-07-29T06:43:53;26.10;70.90
12477;DHT22;6303;51.504;6.300;2023-07-29T06:46:20;26.10;70.80
12477;DHT22;6303;51.504;6.300;2023-07-29T06:48:48;26.20;70.70
12477;DHT22;6303;51.504;6.300;2023-07-29T06:51:15;26.20;70.60
12477;DHT22;6303;51.504;6.300;2023-07-29T06:53:42;26.20;70.40
12477;DHT22;6303;51.504;6.300;2023-07-29T06:56:10;26.20;70.30
12477;DHT22;6303;51.504;6.300;2023-07-29T06:58:37;26.20;70.20
12477;DHT22;6303;51.504;6.300;2023-07-29T07:01:04;26.20;69.90
12477;DHT22;6303;51.504;6.300;2023-07-29T07:03:31;26.20;69.60
12477;DHT22;6303;51.504;6.300;2023-07-29T07:05:59;26.30;69.70
12477;DHT22;6303;51.504;6.300;2023-07-29T07:08:26;26.30;69.70
12477;DHT22;6303;51.504;6.300;2023-07-29T07:10:53;25.40;69.00
12477;DHT22;6303;51.504;6.300;2023-07-29T07:13:20;26.30;69.70
12477;DHT22;6303;51.504;6.300;2023-07-29T07:15:48;26.30;69.60
12477;DHT22;6303;51.504;6.300;2023-07-29T07:18:15;26.30;69.60
12477;DHT22;6303;51.504;6.300;2023-07-29T07:20:42;26.30;69.40
12477;DHT22;6303;51.504;6.300;2023-07-29T07:23:10;26.30;69.30
12477;DHT22;6303;51.504;6.300;2023-07-29T07:25:39;26.30;69.50
12477;DHT22;6303;51.504;6.300;2023-07-29T07:28:06;26.30;69.40
12477;DHT22;6303;51.504;6.300;2023-07-29T07:30:33;26.40;69.30
12477;DHT22;6303;51.504;6.300;2023-07-29T07:33:00;26.40;69.30
12477;DHT22;6303;51.504;6.300;2023-07-29T07:35:27;26.40;69.30
12477;DHT22;6303;51.504;6.300;2023-07-29T07:37:54;26.40;69.20
12477;DHT22;6303;51.504;6.300;2023-07-29T07:40:22;26.40;69.10
12477;DHT22;6303;51.504;6.300;2023-07-29T07:42:49;26.40;69.10
12477;DHT22;6303;51.504;6.300;2023-07-29T07:45:16;26.40;69.20
12477;DHT22;6303;51.504;6.300;2023-07-29T07:47:44;26.00;68.80
12477;DHT22;6303;51.504;6.300;2023-07-29T07:50:11;26.40;69.20
12477;DHT22;6303;51.504;6.300;2023-07-29T07:52:39;26.40;69.10
12477;DHT22;6303;51.504;6.300;2023-07-29T07:55:07;26.40;69.10
12477;DHT22;6303;51.504;6.300;2023-07-29T07:57:36;26.40;69.10
12477;DHT22;6303;51.504;6.300;2023-07-29T08:00:04;26.50;69.20
12477;DHT22;6303;51.504;6.300;2023-07-29T08:02:38;26.50;69.30
12477;DHT22;6303;51.504;6.300;2023-07-29T08:05:06;26.50;69.20
12477;DHT22;6303;51.504;6.300;2023-07-29T08:07:33;26.50;69.30
12477;DHT22;6303;51.504;6.300;2023-07-29T08:10:00;26.50;69.30
12477;DHT22;6303;51.504;6.300;2023-07-29T08:12:27;26.50;69.60
12477;DHT22;6303;51.504;6.300;2023-07-29T08:14:55;26.50;69.80
12477;DHT22;6303;51.504;6.300;2023-07-29T08:17:22;26.60;69.80
12477;DHT22;6303;51.504;6.300;2023-07-29T08:19:50;26.60;69.60
12477;DHT22;6303;51.504;6.300;2023-07-29T08:22:17;26.60;69.40
12477;DHT22;6303;51.504;6.300;2023-07-29T08:24:44;26.60;69.10
12477;DHT22;6303;51.504;6.300;2023-07-29T08:27:11;26.60;69.10
12477;DHT22;6303;51.504;6.300;2023-07-29T08:29:38;26.70;69.20
12477;DHT22;6303;51.504;6.300;2023-07-29T08:32:07;26.70;69.30
12477;DHT22;6303;51.504;6.300;2023-07-29T08:34:34;26.70;69.10
12477;DHT22;6303;51.504;6.300;2023-07-29T08:37:01;26.70;69.00
12477;DHT22;6303;51.504;6.300;2023-07-29T08:39:28;26.70;68.90
12477;DHT22;6303;51.504;6.300;2023-07-29T08:42:00;26.70;68.90
12477;DHT22;6303;51.504;6.300;2023-07-29T08:44:35;26.70;69.10
12477;DHT22;6303;51.504;6.300;2023-07-29T08:47:04;26.70;68.90
12477;DHT22;6303;51.504;6.300;2023-07-29T08:49:33;26.70;68.80
12477;DHT22;6303;51.504;6.300;2023-07-29T08:52:01;26.70;68.70
12477;DHT22;6303;51.504;6.300;2023-07-29T08:54:28;26.70;68.70
12477;DHT22;6303;51.504;6.300;2023-07-29T08:56:56;26.70;68.70
12477;DHT22;6303;51.504;6.300;2023-07-29T08:59:23;26.70;68.70
12477;DHT22;6303;51.504;6.300;2023-07-29T09:01:51;26.70;68.50
12477;DHT22;6303;51.504;6.300;2023-07-29T09:04:21;26.70;68.50
12477;DHT22;6303;51.504;6.300;2023-07-29T09:06:51;26.80;68.50
12477;DHT22;6303;51.504;6.300;2023-07-29T09:09:18;26.80;68.40
12477;DHT22;6303;51.504;6.300;2023-07-29T09:11:45;26.80;68.30
12477;DHT22;6303;51.504;6.300;2023-07-29T09:14:13;26.80;68.20
12477;DHT22;6303;51.504;6.300;2023-07-29T09:16:41;26.80;68.10
12477;DHT22;6303;51.504;6.300;2023-07-29T09:19:08;26.80;68.00
12477;DHT22;6303;51.504;6.300;2023-07-29T09:21:38;26.80;67.90
12477;DHT22;6303;51.504;6.300;2023-07-29T09:24:07;26.80;67.60
12477;DHT22;6303;51.504;6.300;2023-07-29T09:26:35;26.80;67.50
12477;DHT22;6303;51.504;6.300;2023-07-29T09:29:03;26.80;67.40
12477;DHT22;6303;51.504;6.300;2023-07-29T09:31:30;26.90;67.20
12477;DHT22;6303;51.504;6.300;2023-07-29T09:33:57;26.80;66.90
12477;DHT22;6303;51.504;6.300;2023-07-29T09:36:25;26.90;67.00
12477;DHT22;6303;51.504;6.300;2023-07-29T09:38:53;26.80;66.70
12477;DHT22;6303;51.504;6.300;2023-07-29T09:41:24;26.80;66.70
12477;DHT22;6303;51.504;6.300;2023-07-29T09:43:55;26.80;66.70
12477;DHT22;6303;51.504;6.300;2023-07-29T09:46:24;26.60;66.60
12477;DHT22;6303;51.504;6.300;2023-07-29T09:48:53;26.80;67.00
12477;DHT22;6303;51.504;6.300;2023-07-29T09:51:21;26.80;67.00
12477;DHT22;6303;51.504;6.300;2023-07-29T09:53:50;26.80;67.10
12477;DHT22;6303;51.504;6.300;2023-07-29T09:56:17;26.80;67.20
12477;DHT22;6303;51.504;6.300;2023-07-29T09:58:48;26.80;67.10
12477;DHT22;6303;51.504;6.300;2023-07-29T10:01:15;26.80;67.10
12477;DHT22;6303;51.504;6.300;2023-07-29T10:03:42;26.80;67.20
12477;DHT22;6303;51.504;6.300;2023-07-29T10:06:11;26.80;67.30
12477;DHT22;6303;51.504;6.300;2023-07-29T10:08:39;26.80;67.30
12477;DHT22;6303;51.504;6.300;2023-07-29T10:11:08;26.80;67.10
12477;DHT22;6303;51.504;6.300;2023-07-29T10:13:35;26.90;66.90
12477;DHT22;6303;51.504;6.300;2023-07-29T10:16:04;26.80;66.70
12477;DHT22;6303;51.504;6.300;2023-07-29T10:18:33;26.90;66.70
12477;DHT22;6303;51.504;6.300;2023-07-29T10:21:01;26.40;66.30
12477;DHT22;6303;51.504;6.300;2023-07-29T10:23:32;26.90;66.50
12477;DHT22;6303;51.504;6.300;2023-07-29T10:26:03;26.90;66.50
12477;DHT22;6303;51.504;6.300;2023-07-29T10:28:31;26.90;66.70
12477;DHT22;6303;51.504;6.300;2023-07-29T10:31:00;26.90;67.30
12477;DHT22;6303;51.504;6.300;2023-07-29T10:33:27;26.90;66.40
12477;DHT22;6303;51.504;6.300;2023-07-29T10:35:56;26.90;66.30
12477;DHT22;6303;51.504;6.300;2023-07-29T10:38:24;26.90;66.20
12477;DHT22;6303;51.504;6.300;2023-07-29T10:40:52;26.90;66.40
12477;DHT22;6303;51.504;6.300;2023-07-29T10:43:25;26.90;66.60
12477;DHT22;6303;51.504;6.300;2023-07-29T10:45:56;26.90;66.40
12477;DHT22;6303;51.504;6.300;2023-07-29T10:48:41;26.90;66.30
12477;DHT22;6303;51.504;6.300;2023-07-29T10:51:34;27.00;66.20
12477;DHT22;6303;51.504;6.300;2023-07-29T10:54:02;26.90;66.30
12477;DHT22;6303;51.504;6.300;2023-07-29T10:56:31;27.00;66.20
12477;DHT22;6303;51.504;6.300;2023-07-29T10:59:30;26.90;66.10
12477;DHT22;6303;51.504;6.300;2023-07-29T11:01:59;26.90;66.00
12477;DHT22;6303;51.504;6.300;2023-07-29T11:04:29;26.90;66.00
12477;DHT22;6303;51.504;6.300;2023-07-29T11:07:18;26.90;66.00
12477;DHT22;6303;51.504;6.300;2023-07-29T11:09:56;26.90;66.00
12477;DHT22;6303;51.504;6.300;2023-07-29T11:12:34;26.90;66.20
12477;DHT22;6303;51.504;6.300;2023-07-29T11:15:04;26.90;66.40
12477;DHT22;6303;51.504;6.300;2023-07-29T11:17:33;26.90;66.70
12477;DHT22;6303;51.504;6.300;2023-07-29T11:20:03;26.90;66.70
12477;DHT22;6303;51.504;6.300;2023-07-29T11:22:31;27.00;66.70
12477;DHT22;6303;51.504;6.300;2023-07-29T11:24:58;27.00;66.80
12477;DHT22;6303;51.504;6.300;2023-07-29T11:27:25;26.90;66.80
12477;DHT22;6303;51.504;6.300;2023-07-29T11:29:57;27.00;66.80
12477;DHT22;6303;51.504;6.300;2023-07-29T11:32:24;27.00;66.80
12477;DHT22;6303;51.504;6.300;2023-07-29T11:34:52;27.00;66.70
12477;DHT22;6303;51.504;6.300;2023-07-29T11:37:20;27.00;66.50
12477;DHT22;6303;51.504;6.300;2023-07-29T11:39:47;27.00;66.50
12477;DHT22;6303;51.504;6.300;2023-07-29T11:42:15;27.00;66.50
12477;DHT22;6303;51.504;6.300;2023-07-29T11:44:42;27.00;66.40
12477;DHT22;6303;51.504;6.300;2023-07-29T11:47:09;27.00;66.20
12477;DHT22;6303;51.504;6.300;2023-07-29T11:49:39;27.10;66.20
12477;DHT22;6303;51.504;6.300;2023-07-29T11:52:07;27.00;66.20
12477;DHT22;6303;51.504;6.300;2023-07-29T11:54:37;27.10;66.40
12477;DHT22;6303;51.504;6.300;2023-07-29T11:57:06;27.00;66.30
12477;DHT22;6303;51.504;6.300;2023-07-29T11:59:33;27.00;66.40
12477;DHT22;6303;51.504;6.300;2023-07-29T12:02:01;27.00;66.60
12477;DHT22;6303;51.504;6.300;2023-07-29T12:04:29;27.00;67.10
12477;DHT22;6303;51.504;6.300;2023-07-29T12:06:57;27.10;67.40
12477;DHT22;6303;51.504;6.300;2023-07-29T12:09:24;27.10;67.40
12477;DHT22;6303;51.504;6.300;2023-07-29T12:11:54;26.40;66.80
12477;DHT22;6303;51.504;6.300;2023-07-29T12:14:21;27.20;67.30
12477;DHT22;6303;51.504;6.300;2023-07-29T12:16:48;27.20;67.20
12477;DHT22;6303;51.504;6.300;2023-07-29T12:19:17;27.20;66.80
12477;DHT22;6303;51.504;6.300;2023-07-29T12:21:45;27.20;66.60
12477;DHT22;6303;51.504;6.300;2023-07-29T12:24:12;27.20;66.60
12477;DHT22;6303;51.504;6.300;2023-07-29T12:26:40;27.20;66.50
12477;DHT22;6303;51.504;6.300;2023-07-29T12:29:16;27.20;66.40
12477;DHT22;6303;51.504;6.300;2023-07-29T12:31:45;27.20;66.50
12477;DHT22;6303;51.504;6.300;2023-07-29T12:34:18;27.20;66.50
12477;DHT22;6303;51.504;6.300;2023-07-29T12:36:47;27.20;66.60
12477;DHT22;6303;51.504;6.300;2023-07-29T12:39:18;27.20;66.40
12477;DHT22;6303;51.504;6.300;2023-07-29T12:41:45;27.30;66.40
12477;DHT22;6303;51.504;6.300;2023-07-29T12:44:14;27.30;66.30
12477;DHT22;6303;51.504;6.300;2023-07-29T12:46:41;27.30;66.20
12477;DHT22;6303;51.504;6.300;2023-07-29T12:49:09;27.30;66.20
12477;DHT22;6303;51.504;6.300;2023-07-29T12:51:36;27.30;66.00
12477;DHT22;6303;51.504;6.300;2023-07-29T12:54:03;27.30;65.60
12477;DHT22;6303;51.504;6.300;2023-07-29T12:56:30;27.30;65.40
12477;DHT22;6303;51.504;6.300;2023-07-29T12:58:58;27.30;65.50
12477;DHT22;6303;51.504;6.300;2023-07-29T13:01:27;27.30;65.50
12477;DHT22;6303;51.504;6.300;2023-07-29T13:03:54;27.30;65.50
12477;DHT22;6303;51.504;6.300;2023-07-29T13:06:22;27.30;65.60
12477;DHT22;6303;51.504;6.300;2023-07-29T13:08:52;27.30;65.80
12477;DHT22;6303;51.504;6.300;2023-07-29T13:11:19;27.30;65.70
12477;DHT22;6303;51.504;6.300;2023-07-29T13:13:46;27.30;65.80
12477;DHT22;6303;51.504;6.300;2023-07-29T13:16:13;27.30;65.80
12477;DHT22;6303;51.504;6.300;2023-07-29T13:18:43;27.40;65.90
12477;DHT22;6303;51.504;6.300;2023-07-29T13:21:10;27.40;65.90
12477;DHT22;6303;51.504;6.300;2023-07-29T13:23:37;27.40;66.10
12477;DHT22;6303;51.504;6.300;2023-07-29T13:26:05;27.40;66.10
12477;DHT22;6303;51.504;6.300;2023-07-29T13:28:32;27.40;66.00
12477;DHT22;6303;51.504;6.300;2023-07-29T13:31:00;27.40;66.00
12477;DHT22;6303;51.504;6.300;2023-07-29T13:33:27;27.40;66.80
12477;DHT22;6303;51.504;6.300;2023-07-29T13:35:56;27.40;66.10
12477;DHT22;6303;51.504;6.300;2023-07-29T13:38:23;27.40;66.40
12477;DHT22;6303;51.504;6.300;2023-07-29T13:40:50;27.40;66.20
12477;DHT22;6303;51.504;6.300;2023-07-29T13:43:17;27.40;66.20
12477;DHT22;6303;51.504;6.300;2023-07-29T13:45:44;27.40;66.20
12477;DHT22;6303;51.504;6.300;2023-07-29T13:48:14;27.40;66.20
12477;DHT22;6303;51.504;6.300;2023-07-29T13:50:41;27.40;66.30
12477;DHT22;6303;51.504;6.300;2023-07-29T13:53:10;27.40;66.30
12477;DHT22;6303;51.504;6.300;2023-07-29T13:55:37;27.40;66.40
12477;DHT22;6303;51.504;6.300;2023-07-29T13:58:04;27.40;66.40
12477;DHT22;6303;51.504;6.300;2023-07-29T14:00:31;27.40;66.50
12477;DHT22;6303;51.504;6.300;2023-07-29T14:02:59;27.40;66.60
12477;DHT22;6303;51.504;6.300;2023-07-29T14:05:26;27.40;67.30
12477;DHT22;6303;51.504;6.300;2023-07-29T14:07:53;27.40;66.70
12477;DHT22;6303;51.504;6.300;2023-07-29T14:10:21;27.40;66.80
12477;DHT22;6303;51.504;6.300;2023-07-29T14:12:48;27.30;66.70
12477;DHT22;6303;51.504;6.300;2023-07-29T14:15:15;27.40;66.60
12477;DHT22;6303;51.504;6.300;2023-07-29T14:17:42;27.40;66.60
12477;DHT22;6303;51.504;6.300;2023-07-29T14:20:10;27.40;66.70
12477;DHT22;6303;51.504;6.300;2023-07-29T14:22:37;27.30;66.60
12477;DHT22;6303;51.504;6.300;2023-07-29T14:25:05;27.30;66.70
12477;DHT22;6303;51.504;6.300;2023-07-29T14:27:34;27.30;66.70
12477;DHT22;6303;51.504;6.300;2023-07-29T14:30:02;27.30;66.70
12477;DHT22;6303;51.504;6.300;2023-07-29T14:32:29;27.30;66.80
12477;DHT22;6303;51.504;6.300;2023-07-29T14:34:56;27.30;66.90
12477;DHT22;6303;51.504;6.300;2023-07-29T14:37:23;27.30;66.90
12477;DHT22;6303;51.504;6.300;2023-07-29T14:39:50;27.30;66.80
12477;DHT22;6303;51.504;6.300;2023-07-29T14:42:17;27.30;66.70
12477;DHT22;6303;51.504;6.300;2023-07-29T14:44:45;27.30;66.70
12477;DHT22;6303;51.504;6.300;2023-07-29T14:47:12;27.30;67.30
12477;DHT22;6303;51.504;6.300;2023-07-29T14:49:39;27.30;66.50
12477;DHT22;6303;51.504;6.300;2023-07-29T14:52:07;27.30;66.50
12477;DHT22;6303;51.504;6.300;2023-07-29T14:54:34;27.30;66.40
12477;DHT22;6303;51.504;6.300;2023-07-29T14:57:01;27.30;66.50
12477;DHT22;6303;51.504;6.300;2023-07-29T14:59:28;27.30;66.50
12477;DHT22;6303;51.504;6.300;2023-07-29T15:01:57;27.30;66.60
12477;DHT22;6303;51.504;6.300;2023-07-29T15:04:24;27.30;66.90
12477;DHT22;6303;51.504;6.300;2023-07-29T15:06:51;27.30;66.90
12477;DHT22;6303;51.504;6.300;2023-07-29T15:09:18;27.30;66.70
12477;DHT22;6303;51.504;6.300;2023-07-29T15:11:45;27.30;66.70
12477;DHT22;6303;51.504;6.300;2023-07-29T15:14:12;27.30;66.70
12477;DHT22;6303;51.504;6.300;2023-07-29T15:16:39;27.30;66.70
12477;DHT22;6303;51.504;6.300;2023-07-29T15:19:08;27.30;66.70
12477;DHT22;6303;51.504;6.300;2023-07-29T15:21:35;27.30;66.70
12477;DHT22;6303;51.504;6.300;2023-07-29T15:24:02;27.30;66.70
12477;DHT22;6303;51.504;6.300;2023-07-29T15:26:29;27.30;66.70
12477;DHT22;6303;51.504;6.300;2023-07-29T15:28:59;27.30;66.70
12477;DHT22;6303;51.504;6.300;2023-07-29T15:31:26;27.30;66.80
12477;DHT22;6303;51.504;6.300;2023-07-29T15:33:53;27.30;67.00
12477;DHT22;6303;51.504;6.300;2023-07-29T15:36:22;27.30;67.30
12477;DHT22;6303;51.504;6.300;2023-07-29T15:38:49;27.30;67.70
12477;DHT22;6303;51.504;6.300;2023-07-29T15:41:16;27.30;68.10
12477;DHT22;6303;51.504;6.300;2023-07-29T15:43:43;27.40;68.10
12477;DHT22;6303;51.504;6.300;2023-07-29T15:46:10;27.40;68.20
12477;DHT22;6303;51.504;6.300;2023-07-29T15:48:37;27.40;68.30
12477;DHT22;6303;51.504;6.300;2023-07-29T15:51:04;27.40;68.40